Time;durP1;ratioP1;P1;durP2;ratioP2;P2;SDS_P1;SDS_P2;PMS_P1;PMS_P2;Temp;Humidity;BMP_temperature;BMP_pressure;BME280_temperature;BME280_humidity;BME280_pressure;Samples;Min_cycle;Max_cycle;Signal;HPM_P1;HPM_P2
2022/06/03 03:02:12;;;;;;;0.60;0.47;;;24.30;41.40;;;;;;5225147;23;46764;-63
2022/06/03 03:05:00;;;;;;;0.52;0.45;;;24.30;41.50;;;;;;4891215;28;45111;-62
2022/06/03 03:07:32;;;;;;;0.82;0.50;;;24.20;41.50;;;;;;4890469;28;45193;-62
2022/06/03 03:10:09;;;;;;;3.53;0.90;;;24.20;41.40;;;;;;4915811;28;45306;-62
2022/06/03 03:12:50;;;;;;;0.60;0.50;;;24.20;41.40;;;;;;4888801;28;45518;-62
2022/06/03 03:15:55;;;;;;;0.50;0.50;;;24.20;41.40;;;;;;4891745;28;45408;-61
2022/06/03 03:18:57;;;;;;;0.60;0.50;;;24.30;41.50;;;;;;4872663;28;45823;-63
2022/06/03 03:22:08;;;;;;;0.50;0.50;;;24.20;41.50;;;;;;4875629;29;46879;-62
2022/06/03 03:25:15;;;;;;;0.88;0.68;;;24.20;41.60;;;;;;4815035;29;45467;-61
2022/06/03 03:28:04;;;;;;;0.50;0.47;;;24.20;41.60;;;;;;4796073;29;45384;-62
2022/06/03 03:30:55;;;;;;;1.25;0.70;;;24.20;41.50;;;;;;4893763;28;45617;-62
2022/06/03 03:33:41;;;;;;;0.50;0.50;;;24.10;41.50;;;;;;4894438;28;45606;-62
2022/06/03 03:36:39;;;;;;;0.77;0.60;;;24.20;41.60;;;;;;4866308;28;45474;-62
2022/06/03 03:39:36;;;;;;;0.63;0.63;;;24.20;41.60;;;;;;4884391;28;45387;-62
2022/06/03 03:42:08;;;;;;;0.63;0.50;;;24.20;41.60;;;;;;4875710;28;45255;-61
2022/06/03 03:44:55;;;;;;;0.65;0.50;;;24.10;41.50;;;;;;4896193;28;46184;-62
2022/06/03 03:47:55;;;;;;;0.60;0.60;;;24.10;42.10;;;;;;4900010;28;45204;-62
2022/06/03 03:50:45;;;;;;;1.23;0.75;;;24.10;41.50;;;;;;4893861;28;45320;-61
2022/06/03 03:53:29;;;;;;;0.57;0.50;;;24.10;41.50;;;;;;4862785;28;45560;-62
2022/06/03 03:56:29;;;;;;;1.35;0.60;;;24.10;41.50;;;;;;4876168;28;45364;-61
2022/06/03 03:59:18;;;;;;;0.55;0.55;;;24.10;41.60;;;;;;4894667;28;45336;-61
2022/06/03 04:01:51;;;;;;;0.40;0.40;;;24.10;41.60;;;;;;4877317;28;45570;-62
2022/06/03 04:04:27;;;;;;;0.70;0.60;;;24.10;41.60;;;;;;4898295;28;45501;-62
2022/06/03 04:07:33;;;;;;;0.60;0.60;;;24.10;41.60;;;;;;4892211;28;45393;-61
2022/06/03 04:10:10;;;;;;;0.60;0.50;;;24.10;41.60;;;;;;4857390;29;45129;-61
2022/06/03 04:12:41;;;;;;;0.47;0.47;;;24.10;41.60;;;;;;4877431;29;45583;-62
2022/06/03 04:15:46;;;;;;;1.08;0.50;;;24.10;41.60;;;;;;4895881;28;45564;-63
2022/06/03 04:18:40;;;;;;;0.82;0.70;;;24.10;41.60;;;;;;4896125;28;46292;-62
2022/06/03 04:21:29;;;;;;;0.63;0.50;;;24.10;41.60;;;;;;4881427;28;45222;-61
2022/06/03 04:24:27;;;;;;;1.10;0.60;;;24.10;41.70;;;;;;4880029;28;45575;-62
2022/06/03 04:27:07;;;;;;;0.88;0.60;;;24.10;41.70;;;;;;4880903;28;45158;-61
2022/06/03 04:30:03;;;;;;;0.43;0.38;;;24.10;41.70;;;;;;4890495;28;46323;-62
2022/06/03 04:33:02;;;;;;;0.85;0.50;;;24.10;41.70;;;;;;4879429;28;45293;-62
2022/06/03 04:35:30;;;;;;;0.63;0.50;;;24.10;41.80;;;;;;4881864;28;45645;-62
2022/06/03 04:38:26;;;;;;;0.50;0.45;;;24.10;41.80;;;;;;4899065;28;45075;-62
2022/06/03 04:41:11;;;;;;;0.50;0.50;;;24.10;41.70;;;;;;4897647;28;45929;-62
2022/06/03 04:44:14;;;;;;;0.52;0.50;;;24.10;41.70;;;;;;4896396;28;45459;-62
2022/06/03 04:47:21;;;;;;;0.53;0.50;;;24.10;41.80;;;;;;4898027;28;44992;-62
2022/06/03 04:49:58;;;;;;;0.45;0.40;;;24.10;41.80;;;;;;4894315;28;45127;-62
2022/06/03 04:52:45;;;;;;;0.85;0.60;;;24.10;41.80;;;;;;4902001;28;45387;-63
2022/06/03 04:55:25;;;;;;;0.57;0.57;;;24.10;41.80;;;;;;4874163;28;44732;-62
2022/06/03 04:58:09;;;;;;;0.90;0.63;;;24.00;41.80;;;;;;4880171;28;45318;-61
2022/06/03 05:01:13;;;;;;;0.50;0.47;;;24.00;41.70;;;;;;4896527;28;45067;-60
2022/06/03 05:04:10;;;;;;;1.45;0.68;;;24.10;41.70;;;;;;4878039;29;45367;-62
2022/06/03 05:07:05;;;;;;;0.80;0.60;;;24.10;41.70;;;;;;4892168;28;45336;-62
2022/06/03 05:10:10;;;;;;;1.08;0.60;;;24.10;41.60;;;;;;4885033;28;45754;-61
2022/06/03 05:13:03;;;;;;;0.52;0.50;;;24.10;41.60;;;;;;4886954;28;46504;-62
2022/06/03 05:16:05;;;;;;;0.43;0.43;;;24.10;41.60;;;;;;4898403;28;45520;-61
2022/06/03 05:18:44;;;;;;;0.73;0.60;;;24.10;41.50;;;;;;4899032;28;45229;-61
2022/06/03 05:21:57;;;;;;;0.60;0.60;;;24.10;41.60;;;;;;4892463;28;44919;-63
2022/06/03 05:24:51;;;;;;;0.52;0.52;;;24.10;41.60;;;;;;4882958;28;45377;-63
2022/06/03 05:27:21;;;;;;;1.90;0.60;;;24.10;41.50;;;;;;4898006;28;45915;-61
2022/06/03 05:30:25;;;;;;;0.50;0.50;;;24.20;41.50;;;;;;4896006;28;45404;-60
2022/06/03 05:33:23;;;;;;;0.93;0.60;;;24.20;41.30;;;;;;4916010;28;45517;-61
2022/06/03 05:36:28;;;;;;;0.55;0.47;;;24.20;41.80;;;;;;4918172;28;45565;-61
2022/06/03 05:39:12;;;;;;;1.20;0.47;;;24.20;41.20;;;;;;4901291;28;47437;-59
2022/06/03 05:45:15;;;;;;;0.35;0.35;;;24.30;41.30;;;;;;4925088;28;45289;-62
2022/06/03 05:47:47;;;;;;;1.08;0.80;;;24.30;41.40;;;;;;4919697;28;45411;-58
2022/06/03 05:50:22;;;;;;;0.43;0.43;;;24.30;41.40;;;;;;4888055;28;45184;-56
2022/06/03 05:52:59;;;;;;;0.40;0.40;;;24.30;41.40;;;;;;4917576;28;45404;-60
2022/06/03 05:55:39;;;;;;;0.50;0.50;;;24.30;41.40;;;;;;4914854;28;45261;-61
2022/06/03 05:58:19;;;;;;;0.60;0.60;;;24.30;41.30;;;;;;4901263;28;44759;-61
2022/06/03 06:01:21;;;;;;;0.70;0.70;;;24.30;41.40;;;;;;4900643;28;45349;-62
2022/06/03 06:04:04;;;;;;;3.20;0.60;;;24.30;41.40;;;;;;4883331;28;45565;-60
2022/06/03 06:06:42;;;;;;;1.00;0.70;;;24.30;41.30;;;;;;4917616;28;45368;-60
2022/06/03 06:09:17;;;;;;;0.60;0.55;;;24.30;41.10;;;;;;4916345;28;44975;-61
2022/06/03 06:12:04;;;;;;;0.70;0.70;;;24.30;40.90;;;;;;4919761;28;45132;-62
2022/06/03 06:14:48;;;;;;;0.70;0.70;;;24.40;41.00;;;;;;4917006;28;45113;-58
2022/06/03 06:17:32;;;;;;;0.50;0.50;;;24.40;40.90;;;;;;4919102;28;45055;-60
2022/06/03 06:20:02;;;;;;;0.55;0.55;;;24.40;41.00;;;;;;4916176;28;45641;-61
2022/06/03 06:22:31;;;;;;;1.23;0.63;;;24.40;40.80;;;;;;4896497;28;46379;-61
2022/06/03 06:25:28;;;;;;;0.63;0.60;;;24.40;40.90;;;;;;4883618;28;45472;-61
2022/06/03 06:28:32;;;;;;;0.57;0.55;;;24.50;40.60;;;;;;4902164;28;45123;-62
2022/06/03 06:31:06;;;;;;;0.68;0.60;;;24.60;40.90;;;;;;4915379;28;45657;-61
2022/06/03 06:33:44;;;;;;;1.17;0.60;;;24.60;40.90;;;;;;4904487;28;46013;-61
2022/06/03 06:36:24;;;;;;;1.42;0.65;;;24.60;40.80;;;;;;4916834;28;44767;-61
2022/06/03 06:39:22;;;;;;;0.57;0.57;;;24.70;40.70;;;;;;4922703;28;45191;-62
2022/06/03 06:41:51;;;;;;;0.77;0.77;;;24.70;40.30;;;;;;4900778;28;45515;-61
2022/06/03 06:44:44;;;;;;;0.73;0.73;;;24.70;40.20;;;;;;4918012;28;45224;-61
2022/06/03 06:47:16;;;;;;;0.60;0.60;;;24.80;40.30;;;;;;4916654;28;45862;-61
2022/06/03 06:49:48;;;;;;;1.10;0.60;;;24.80;40.40;;;;;;4898024;28;45365;-62
2022/06/03 06:52:20;;;;;;;0.60;0.60;;;24.80;40.60;;;;;;4900343;28;44758;-62
2022/06/03 06:54:51;;;;;;;0.60;0.50;;;24.80;40.60;;;;;;4898736;28;45410;-63
2022/06/03 06:57:20;;;;;;;0.90;0.60;;;24.80;40.50;;;;;;4912975;28;45428;-62
2022/06/03 07:00:05;;;;;;;1.02;0.55;;;24.80;40.60;;;;;;4900325;28;44735;-62
2022/06/03 07:03:00;;;;;;;0.60;0.60;;;24.80;40.50;;;;;;4914354;28;44971;-62
2022/06/03 07:05:33;;;;;;;0.50;0.50;;;24.80;40.60;;;;;;4914624;28;45143;-62
2022/06/03 07:08:02;;;;;;;1.23;0.80;;;24.80;40.60;;;;;;4917997;28;45080;-61
2022/06/03 07:10:44;;;;;;;1.60;0.70;;;24.80;40.60;;;;;;4913860;28;45534;-62
2022/06/03 07:13:32;;;;;;;1.42;0.70;;;24.80;40.60;;;;;;4901749;28;45597;-62
2022/06/03 07:16:07;;;;;;;0.93;0.73;;;24.80;40.60;;;;;;4897805;28;47178;-62
2022/06/03 07:22:24;;;;;;;0.70;0.70;;;24.90;40.40;;;;;;4899443;28;45653;-62
2022/06/03 07:25:15;;;;;;;1.73;0.70;;;24.90;40.40;;;;;;4885722;28;44977;-62
2022/06/03 07:27:43;;;;;;;0.60;0.60;;;25.00;40.40;;;;;;4900247;28;45168;-62
2022/06/03 07:30:16;;;;;;;0.68;0.52;;;25.00;40.50;;;;;;4913751;28;45141;-62
2022/06/03 07:32:50;;;;;;;0.98;0.65;;;25.00;40.40;;;;;;4898876;28;45558;-61
2022/06/03 07:35:44;;;;;;;0.80;0.60;;;25.00;40.30;;;;;;4882453;28;46169;-63
2022/06/03 07:38:26;;;;;;;2.45;0.80;;;25.00;40.30;;;;;;4913124;28;46268;-62
2022/06/03 07:40:57;;;;;;;2.42;0.90;;;25.10;40.30;;;;;;4884203;28;45085;-62
2022/06/03 07:43:39;;;;;;;0.80;0.70;;;25.10;40.40;;;;;;4899490;28;45118;-63
2022/06/03 07:46:27;;;;;;;1.00;0.50;;;25.10;40.30;;;;;;4904476;28;45193;-61
2022/06/03 07:48:52;;;;;;;0.68;0.60;;;25.10;40.30;;;;;;4891649;28;46054;-62
2022/06/03 07:51:23;;;;;;;1.08;0.90;;;25.20;40.30;;;;;;4882302;28;45306;-61
2022/06/03 07:54:04;;;;;;;1.27;0.60;;;25.30;40.30;;;;;;4898118;28;45252;-62
2022/06/03 07:56:31;;;;;;;1.73;0.77;;;25.20;40.20;;;;;;4884916;28;45535;-61
2022/06/03 07:59:01;;;;;;;1.98;0.70;;;25.20;40.30;;;;;;4903256;28;46845;-61
2022/06/03 08:01:39;;;;;;;1.80;0.90;;;25.30;40.20;;;;;;4915742;28;44756;-60
2022/06/03 08:04:05;;;;;;;1.15;0.90;;;25.30;40.20;;;;;;4886726;28;45472;-61
2022/06/03 08:12:08;;;;;;;0.65;0.65;;;25.40;40.20;;;;;;4915330;28;45803;-63
2022/06/03 08:14:33;;;;;;;0.80;0.80;;;25.40;40.20;;;;;;4888011;28;45446;-63
2022/06/03 08:17:01;;;;;;;0.43;0.40;;;25.40;40.20;;;;;;4901429;28;45392;-63
2022/06/03 08:19:27;;;;;;;0.82;0.80;;;25.40;40.20;;;;;;4885805;28;46019;-63
2022/06/03 08:22:00;;;;;;;1.23;0.90;;;25.40;40.30;;;;;;4902243;28;44700;-63
2022/06/03 08:24:30;;;;;;;0.90;0.60;;;25.50;40.40;;;;;;4901340;28;45532;-63
2022/06/03 08:26:59;;;;;;;0.80;0.63;;;25.50;40.40;;;;;;4894308;28;45172;-63
2022/06/03 08:29:44;;;;;;;0.85;0.70;;;25.50;40.30;;;;;;4886114;28;46120;-63
2022/06/03 08:32:20;;;;;;;1.00;0.80;;;25.60;40.80;;;;;;4901667;28;45068;-63
2022/06/03 08:34:49;;;;;;;1.30;0.90;;;25.60;40.20;;;;;;4884861;28;45633;-63
2022/06/03 08:37:43;;;;;;;1.42;0.93;;;25.60;40.20;;;;;;4878990;28;45502;-60
2022/06/03 08:40:21;;;;;;;1.00;0.90;;;25.60;40.20;;;;;;4889874;28;45386;-61
2022/06/03 08:42:53;;;;;;;2.88;0.80;;;25.70;40.90;;;;;;4903610;28;44907;-61
2022/06/03 08:45:27;;;;;;;1.27;0.80;;;25.70;40.20;;;;;;4922313;28;45187;-61
2022/06/03 08:47:54;;;;;;;1.52;0.90;;;25.80;40.30;;;;;;4898194;28;45021;-60
2022/06/03 08:50:27;;;;;;;0.80;0.75;;;25.80;40.30;;;;;;4897086;28;46286;-61
2022/06/03 08:53:00;;;;;;;;;;;25.80;40.20;;;;;;4901554;28;45451;-60
2022/06/03 08:55:40;;;;;;;0.98;0.80;;;25.80;40.20;;;;;;4918515;28;45489;-61
2022/06/03 08:58:23;;;;;;;1.08;0.98;;;25.90;40.30;;;;;;4918705;28;45260;-61
2022/06/03 09:00:54;;;;;;;1.95;1.23;;;25.90;40.30;;;;;;4901004;28;45304;-60
2022/06/03 09:03:21;;;;;;;1.70;0.73;;;25.90;40.30;;;;;;4909766;28;45544;-61
2022/06/03 09:05:56;;;;;;;1.10;1.00;;;25.90;40.30;;;;;;4892662;28;45277;-60
2022/06/03 09:08:40;;;;;;;0.95;0.85;;;26.00;40.30;;;;;;4893709;28;44858;-61
2022/06/03 09:11:20;;;;;;;1.92;0.90;;;26.00;40.30;;;;;;4891103;28;45418;-59
2022/06/03 09:13:48;;;;;;;3.47;1.00;;;26.00;40.30;;;;;;4887470;28;45427;-61
2022/06/03 09:16:15;;;;;;;2.55;1.05;;;26.00;40.30;;;;;;4899941;28;44769;-60
2022/06/03 09:18:54;;;;;;;1.67;0.90;;;26.10;40.40;;;;;;4884597;28;45261;-61
2022/06/03 09:21:25;;;;;;;0.80;0.77;;;26.10;40.40;;;;;;4886137;28;46010;-59
2022/06/03 09:23:54;;;;;;;1.42;0.90;;;26.10;40.40;;;;;;4885703;28;45538;-60
2022/06/03 09:26:28;;;;;;;4.25;0.95;;;26.10;40.30;;;;;;4906028;28;45584;-60
2022/06/03 09:28:54;;;;;;;2.20;0.75;;;26.10;40.40;;;;;;4900645;28;44720;-59
2022/06/03 09:31:19;;;;;;;1.80;1.00;;;26.20;40.40;;;;;;4895685;28;47217;-60
2022/06/03 09:33:45;;;;;;;1.33;0.88;;;26.20;40.40;;;;;;4885474;28;45239;-60
2022/06/03 09:36:15;;;;;;;2.20;1.00;;;26.20;40.40;;;;;;4902123;28;45425;-61
2022/06/03 09:38:49;;;;;;;0.98;0.93;;;26.30;40.50;;;;;;4902408;28;46082;-61
2022/06/03 09:41:15;;;;;;;1.20;1.08;;;26.30;41.00;;;;;;4881224;29;45715;-61
2022/06/03 09:43:43;;;;;;;1.30;0.80;;;26.30;40.40;;;;;;4905748;28;45380;-59
2022/06/03 09:46:11;;;;;;;0.90;0.90;;;26.30;40.40;;;;;;4885606;28;45416;-61
2022/06/03 09:48:37;;;;;;;3.60;1.00;;;26.30;40.50;;;;;;4882538;28;45606;-61
2022/06/03 09:51:19;;;;;;;1.17;0.98;;;26.30;40.40;;;;;;4884512;28;46379;-61
2022/06/03 09:53:45;;;;;;;0.75;0.75;;;26.40;40.50;;;;;;4899783;28;44886;-60
2022/06/03 09:56:18;;;;;;;1.10;0.88;;;26.40;40.60;;;;;;4887999;28;45038;-59
2022/06/03 09:58:43;;;;;;;2.65;0.90;;;26.40;40.50;;;;;;4900916;28;45437;-60
2022/06/03 10:01:09;;;;;;;0.90;0.90;;;26.40;40.70;;;;;;4880501;28;46045;-61
2022/06/03 10:03:35;;;;;;;2.67;0.90;;;26.40;40.50;;;;;;4894671;28;45546;-63
2022/06/03 10:06:00;;;;;;;3.13;1.05;;;26.40;40.50;;;;;;4897116;28;45379;-61
2022/06/03 10:12:48;;;;;;;2.28;1.10;;;26.50;40.60;;;;;;4902003;28;45217;-61
2022/06/03 10:14:01;;;;;;;0.80;0.80;;;26.50;40.60;;;;;;4914940;28;45237;-62
2022/06/03 10:16:28;;;;;;;1.48;0.80;;;26.50;40.50;;;;;;4880026;28;45012;-62
2022/06/03 10:18:56;;;;;;;1.27;1.05;;;26.50;40.50;;;;;;4892440;28;45232;-62
2022/06/03 10:21:21;;;;;;;4.13;1.17;;;26.60;40.50;;;;;;4917363;28;45707;-63
2022/06/03 10:23:54;;;;;;;1.73;1.02;;;26.60;40.50;;;;;;4916792;28;45258;-62
2022/06/03 10:26:29;;;;;;;;;;;26.70;40.60;;;;;;4894068;28;45478;-60
2022/06/03 10:28:56;;;;;;;1.75;0.88;;;26.60;40.50;;;;;;4925429;28;45717;-62
2022/06/03 10:31:28;;;;;;;4.07;1.20;;;26.60;40.50;;;;;;4897305;28;45543;-62
2022/06/03 10:33:54;;;;;;;2.80;1.20;;;26.70;40.50;;;;;;4884445;28;45450;-60
2022/06/03 10:36:32;;;;;;;1.85;1.10;;;26.70;40.50;;;;;;4896278;28;45200;-62
2022/06/03 10:38:58;;;;;;;3.13;1.00;;;26.70;40.50;;;;;;4896358;28;46154;-62
2022/06/03 10:41:38;;;;;;;1.10;1.00;;;26.70;40.50;;;;;;4915259;28;46626;-63
2022/06/03 10:44:22;;;;;;;1.75;0.90;;;26.70;40.50;;;;;;4895930;28;45189;-63
2022/06/03 10:46:53;;;;;;;1.20;0.90;;;26.70;40.50;;;;;;4900604;28;45376;-62
2022/06/03 10:49:19;;;;;;;3.05;1.05;;;26.80;40.50;;;;;;4896119;28;45273;-62
2022/06/03 11:02:47;;;;;;;1.10;1.00;;;26.80;41.10;;;;;;4915566;28;46272;-62
2022/06/03 11:05:28;;;;;;;2.50;1.45;;;26.80;40.50;;;;;;4887732;28;45277;-63
2022/06/03 11:08:23;;;;;;;3.45;1.25;;;26.80;40.60;;;;;;4900018;28;45256;-62
2022/06/03 11:10:50;;;;;;;1.40;1.25;;;26.80;40.60;;;;;;4901492;28;45039;-62
2022/06/03 11:13:30;;;;;;;1.83;1.20;;;26.80;40.60;;;;;;4894075;28;46254;-62
2022/06/03 11:15:55;;;;;;;5.05;1.10;;;26.90;40.70;;;;;;4911972;28;45358;-62
2022/06/03 11:18:26;;;;;;;1.65;0.90;;;26.90;40.60;;;;;;4896968;28;45505;-62
2022/06/03 11:20:52;;;;;;;2.45;1.10;;;26.90;40.70;;;;;;4891509;28;45018;-63
2022/06/03 11:23:18;;;;;;;1.45;1.08;;;26.90;40.70;;;;;;4898764;28;46194;-61
2022/06/03 11:25:49;;;;;;;1.88;1.17;;;26.90;40.70;;;;;;4913722;28;45224;-62
2022/06/03 11:28:29;;;;;;;3.63;1.05;;;26.90;40.80;;;;;;4915566;28;45245;-62
2022/06/03 11:31:15;;;;;;;1.42;1.10;;;26.90;40.80;;;;;;4883960;28;45482;-62
2022/06/03 11:34:06;;;;;;;2.58;1.08;;;26.90;40.80;;;;;;4909479;28;46347;-62
2022/06/03 11:36:37;;;;;;;1.73;0.95;;;27.00;40.90;;;;;;4881245;28;47027;-62
2022/06/03 11:39:31;;;;;;;4.35;1.27;;;26.90;40.80;;;;;;4880794;28;45455;-62
2022/06/03 11:42:05;;;;;;;1.02;0.98;;;27.00;40.90;;;;;;4906821;28;45547;-63
2022/06/03 11:44:31;;;;;;;1.95;0.98;;;27.00;41.00;;;;;;4877883;28;46505;-63
2022/06/03 11:47:19;;;;;;;4.03;1.60;;;27.00;40.90;;;;;;4908752;28;45394;-63
2022/06/03 11:49:45;;;;;;;2.63;1.20;;;27.00;41.00;;;;;;4915074;28;44820;-63
2022/06/03 11:52:10;;;;;;;1.42;1.25;;;27.10;41.60;;;;;;4885801;28;46316;-63
2022/06/03 11:54:36;;;;;;;1.40;1.02;;;27.00;41.00;;;;;;4892740;28;45806;-64
2022/06/03 11:57:02;;;;;;;1.70;1.15;;;27.00;41.00;;;;;;4901847;28;45431;-63
2022/06/03 11:59:39;;;;;;;2.45;1.40;;;27.10;41.10;;;;;;4900413;28;45244;-64
2022/06/03 12:02:16;;;;;;;1.38;1.15;;;27.10;41.80;;;;;;4896666;28;45042;-63
2022/06/03 12:05:02;;;;;;;1.15;1.05;;;27.10;41.20;;;;;;4897661;28;46377;-65
2022/06/03 12:07:45;;;;;;;0.95;0.93;;;27.10;41.30;;;;;;4878992;29;45421;-64
2022/06/03 12:10:15;;;;;;;1.13;1.00;;;27.10;41.20;;;;;;4878321;29;45853;-62
2022/06/03 12:15:32;;;;;;;1.30;1.20;;;27.10;41.20;;;;;;4894396;28;47038;-63
2022/06/03 12:18:06;;;;;;;1.40;1.20;;;27.10;41.30;;;;;;4896640;28;45362;-65
2022/06/03 12:20:32;;;;;;;1.20;1.10;;;27.10;41.30;;;;;;4900061;28;45197;-64
2022/06/03 12:23:13;;;;;;;1.73;1.10;;;27.20;41.40;;;;;;4894651;28;44717;-63
2022/06/03 12:25:43;;;;;;;2.40;1.50;;;27.20;41.50;;;;;;4893084;28;45905;-63
2022/06/03 12:28:41;;;;;;;1.40;1.30;;;27.20;41.50;;;;;;4894887;28;44966;-60
2022/06/03 12:31:14;;;;;;;1.60;1.05;;;27.20;41.50;;;;;;4889976;28;45786;-63
2022/06/03 12:34:11;;;;;;;2.83;1.13;;;27.20;41.40;;;;;;4893966;28;45557;-61
2022/06/03 12:36:51;;;;;;;1.85;0.90;;;27.20;41.50;;;;;;4892621;28;45480;-62
2022/06/03 12:39:26;;;;;;;1.42;1.23;;;27.20;41.50;;;;;;4898417;28;45233;-67
2022/06/03 12:41:55;;;;;;;3.72;1.38;;;27.20;41.60;;;;;;4892478;28;45660;-61
2022/06/03 12:44:59;;;;;;;1.23;1.13;;;27.30;41.70;;;;;;4888412;28;45041;-62
2022/06/03 12:47:31;;;;;;;1.40;1.10;;;27.30;41.80;;;;;;4895488;28;46235;-59
2022/06/03 12:49:57;;;;;;;2.30;1.70;;;27.30;41.70;;;;;;4893661;28;45474;-62
2022/06/03 12:52:26;;;;;;;1.50;1.00;;;27.30;41.60;;;;;;4898569;28;45171;-60
2022/06/03 12:54:57;;;;;;;1.42;1.33;;;27.30;41.70;;;;;;4898685;28;45311;-62
2022/06/03 12:57:29;;;;;;;4.72;1.20;;;27.30;41.70;;;;;;4898484;28;45541;-61
2022/06/03 13:00:03;;;;;;;1.23;1.08;;;27.30;41.80;;;;;;4897364;28;45213;-62
2022/06/03 13:02:36;;;;;;;1.73;1.13;;;27.30;41.70;;;;;;4910482;28;44955;-62
2022/06/03 13:05:06;;;;;;;5.88;1.23;;;27.30;41.70;;;;;;4898417;28;44920;-62
2022/06/03 13:07:33;;;;;;;2.50;1.42;;;27.30;41.80;;;;;;4894866;28;45660;-66
2022/06/03 13:10:02;;;;;;;1.45;1.20;;;27.40;41.80;;;;;;4891439;28;44736;-63
2022/06/03 13:12:29;;;;;;;1.27;1.17;;;27.30;41.80;;;;;;4899071;28;44808;-63
2022/06/03 13:14:55;;;;;;;2.50;1.30;;;27.30;41.80;;;;;;4898421;28;44809;-63
2022/06/03 13:17:59;;;;;;;1.02;1.00;;;27.30;41.90;;;;;;4877244;28;46441;-63
2022/06/03 13:20:48;;;;;;;1.30;1.20;;;27.30;42.10;;;;;;4892153;28;44895;-61
2022/06/03 13:23:22;;;;;;;3.53;1.00;;;27.30;42.20;;;;;;4877735;28;45537;-62
2022/06/03 13:25:54;;;;;;;1.50;1.23;;;27.30;42.10;;;;;;4899186;28;45635;-61
2022/06/03 13:28:21;;;;;;;1.27;1.00;;;27.30;42.70;;;;;;4899786;28;45690;-62
2022/06/03 13:31:08;;;;;;;2.13;1.20;;;27.40;42.20;;;;;;4896523;28;45539;-61
2022/06/03 13:34:09;;;;;;;1.92;1.08;;;27.30;42.30;;;;;;4897296;28;45002;-63
2022/06/03 13:36:47;;;;;;;1.85;1.00;;;27.40;42.40;;;;;;4891731;28;44993;-63
2022/06/03 13:39:28;;;;;;;1.80;1.17;;;27.40;42.40;;;;;;4909366;28;47235;-63
2022/06/03 13:45:03;;;;;;;1.50;1.40;;;27.40;42.20;;;;;;4887080;28;44920;-63
2022/06/03 13:47:36;;;;;;;2.08;1.20;;;27.40;42.50;;;;;;4899166;28;45322;-62
2022/06/03 13:50:13;;;;;;;2.72;1.10;;;27.30;42.40;;;;;;4898529;28;46804;-62
2022/06/03 13:52:48;;;;;;;0.82;0.82;;;27.40;42.40;;;;;;4896316;28;45463;-63
2022/06/03 13:55:19;;;;;;;1.40;1.30;;;27.40;42.40;;;;;;4909765;28;45556;-61
2022/06/03 13:57:51;;;;;;;1.20;1.10;;;27.40;42.40;;;;;;4877596;29;45315;-60
2022/06/03 14:00:39;;;;;;;1.45;1.20;;;27.50;42.50;;;;;;4881353;28;45985;-59
2022/06/03 14:03:15;;;;;;;1.63;1.00;;;27.50;42.90;;;;;;4896481;28;45546;-59
2022/06/03 14:05:42;;;;;;;1.20;1.10;;;27.50;42.50;;;;;;4895160;28;44730;-61
2022/06/03 14:08:18;;;;;;;1.23;1.13;;;27.50;42.30;;;;;;4913873;28;45281;-60
2022/06/03 14:10:50;;;;;;;1.27;1.17;;;27.50;42.50;;;;;;4899579;28;46211;-59
2022/06/03 14:13:15;;;;;;;2.35;1.25;;;27.50;42.30;;;;;;4897545;28;45182;-59
2022/06/03 14:16:02;;;;;;;1.35;1.25;;;27.50;42.30;;;;;;4914274;28;45245;-58
2022/06/03 14:18:57;;;;;;;1.35;1.20;;;27.50;42.50;;;;;;4916636;28;45578;-60
2022/06/03 14:21:42;;;;;;;3.65;1.25;;;27.50;42.50;;;;;;4873876;28;46093;-63
2022/06/03 14:24:11;;;;;;;1.42;1.20;;;27.50;42.50;;;;;;4914130;28;44772;-59
2022/06/03 14:26:40;;;;;;;2.58;1.10;;;27.50;42.30;;;;;;4916731;28;45433;-62
2022/06/03 14:29:25;;;;;;;1.20;1.10;;;27.60;42.30;;;;;;4880808;28;45576;-62
2022/06/03 14:31:54;;;;;;;2.30;1.45;;;27.50;42.50;;;;;;4899379;28;45245;-62
2022/06/03 14:34:32;;;;;;;1.55;1.10;;;27.60;42.40;;;;;;4883525;28;45012;-62
2022/06/03 14:37:00;;;;;;;1.70;1.40;;;27.50;42.40;;;;;;4899665;28;45029;-62
2022/06/03 14:39:27;;;;;;;3.45;1.35;;;27.60;42.40;;;;;;4900125;28;45276;-61
2022/06/03 14:41:55;;;;;;;1.13;1.02;;;27.50;42.40;;;;;;4898437;28;45207;-62
2022/06/03 14:44:25;;;;;;;3.08;1.33;;;27.50;42.40;;;;;;4898200;28;45402;-62
2022/06/03 14:47:01;;;;;;;1.70;1.38;;;27.50;42.50;;;;;;4879637;28;45354;-64
2022/06/03 14:49:44;;;;;;;1.33;1.23;;;27.50;42.50;;;;;;4896191;28;45980;-62
2022/06/03 14:52:15;;;;;;;1.85;1.30;;;27.50;42.60;;;;;;4884579;28;45646;-62
2022/06/03 14:54:48;;;;;;;1.08;0.98;;;27.50;42.50;;;;;;4898505;28;45432;-62
2022/06/03 14:57:23;;;;;;;1.35;1.20;;;27.50;42.60;;;;;;4884260;28;45327;-62
2022/06/03 15:00:05;;;;;;;1.27;1.17;;;27.50;42.60;;;;;;4898357;28;45359;-62
2022/06/03 15:02:48;;;;;;;2.15;1.17;;;27.50;42.70;;;;;;4890416;28;46358;-62
2022/06/03 15:05:31;;;;;;;1.17;1.08;;;27.50;42.70;;;;;;4898549;28;45162;-62
2022/06/03 15:08:13;;;;;;;1.38;0.88;;;27.40;42.70;;;;;;4892876;28;45164;-61
2022/06/03 15:10:42;;;;;;;1.15;1.05;;;27.40;42.70;;;;;;4877468;28;45574;-62
2022/06/03 15:13:08;;;;;;;1.20;1.10;;;27.40;42.70;;;;;;4895545;28;46200;-63
2022/06/03 15:15:35;;;;;;;1.20;1.10;;;27.40;42.60;;;;;;4887849;28;45345;-61
2022/06/03 15:18:17;;;;;;;1.67;1.20;;;27.40;42.60;;;;;;4897516;28;45293;-63
2022/06/03 15:20:55;;;;;;;1.03;1.00;;;27.40;42.70;;;;;;4914491;28;45257;-62
2022/06/03 15:23:24;;;;;;;1.30;1.20;;;27.40;42.60;;;;;;4892620;28;46097;-62
2022/06/03 15:25:54;;;;;;;1.05;1.00;;;27.40;42.70;;;;;;4913488;28;45330;-62
2022/06/03 15:28:20;;;;;;;1.17;1.10;;;27.40;42.60;;;;;;4868494;28;45158;-62
2022/06/03 15:30:53;;;;;;;1.20;1.10;;;27.40;42.60;;;;;;4895561;28;45524;-62
2022/06/03 15:33:23;;;;;;;1.35;1.25;;;27.40;42.60;;;;;;4897868;28;45997;-62
2022/06/03 15:36:01;;;;;;;1.27;1.17;;;27.40;42.70;;;;;;4906807;28;44647;-63
2022/06/03 15:38:33;;;;;;;1.20;1.10;;;27.40;42.70;;;;;;4902442;28;44645;-63
2022/06/03 15:41:01;;;;;;;1.63;1.20;;;27.40;42.70;;;;;;4889200;28;45681;-63
2022/06/03 15:43:34;;;;;;;2.17;1.23;;;27.40;42.60;;;;;;4871874;28;45574;-63
2022/06/03 15:45:59;;;;;;;2.00;1.20;;;27.40;42.60;;;;;;4885625;28;45315;-62
2022/06/03 15:48:27;;;;;;;1.42;1.20;;;27.30;42.60;;;;;;4908170;28;45296;-63
2022/06/03 15:51:00;;;;;;;1.20;1.10;;;27.40;42.60;;;;;;4888267;28;45504;-61
2022/06/03 15:53:27;;;;;;;1.50;1.20;;;27.40;42.70;;;;;;4909815;28;45619;-62
2022/06/03 15:55:57;;;;;;;1.33;1.23;;;27.30;42.60;;;;;;4909197;28;45021;-63
2022/06/03 15:58:57;;;;;;;1.50;1.40;;;27.30;42.70;;;;;;4902769;28;45075;-63
2022/06/03 16:01:51;;;;;;;2.05;1.33;;;27.30;42.70;;;;;;4908017;28;45478;-62
2022/06/03 16:04:36;;;;;;;0.95;0.95;;;27.30;42.80;;;;;;4889942;28;47410;-60
2022/06/03 16:07:17;;;;;;;2.85;1.20;;;27.30;42.70;;;;;;4894861;28;45394;-61
2022/06/03 16:10:03;;;;;;;1.48;1.38;;;27.30;42.80;;;;;;4907522;28;45360;-62
2022/06/03 16:12:51;;;;;;;3.17;1.02;;;27.30;42.80;;;;;;4877215;28;46722;-61
2022/06/03 16:15:25;;;;;;;1.38;1.27;;;27.30;42.70;;;;;;4878092;28;45686;-62
2022/06/03 16:18:19;;;;;;;3.13;1.27;;;27.20;42.70;;;;;;4888733;28;45620;-63
2022/06/03 16:20:58;;;;;;;1.50;1.40;;;27.30;42.80;;;;;;4908255;28;45715;-62
2022/06/03 16:23:32;;;;;;;1.15;1.10;;;27.30;42.80;;;;;;4875488;28;46275;-62
2022/06/03 16:26:18;;;;;;;2.00;1.10;;;27.30;42.80;;;;;;4903378;28;45104;-62
2022/06/03 16:28:54;;;;;;;1.10;1.10;;;27.30;42.80;;;;;;4895264;28;45202;-62
2022/06/03 16:31:27;;;;;;;2.65;1.30;;;27.20;42.80;;;;;;4876576;28;45329;-63
2022/06/03 16:34:13;;;;;;;3.22;1.15;;;27.20;42.80;;;;;;4887844;28;45291;-64
2022/06/03 16:36:59;;;;;;;1.50;1.40;;;27.20;43.00;;;;;;4904265;28;46972;-63
2022/06/03 16:39:49;;;;;;;1.40;1.30;;;27.20;43.00;;;;;;4894807;28;44935;-61
2022/06/03 16:42:33;;;;;;;1.80;1.25;;;27.20;43.10;;;;;;4911218;28;45831;-63
2022/06/03 16:46:05;;;;;;;1.27;1.17;;;27.20;43.10;;;;;;4895200;28;45313;-63
2022/06/03 16:47:50;;;;;;;2.08;1.40;;;27.20;43.10;;;;;;4891824;28;45446;-63
2022/06/03 16:50:19;;;;;;;1.33;1.13;;;27.20;43.10;;;;;;4876996;28;45819;-63
2022/06/03 16:52:50;;;;;;;1.58;1.42;;;27.20;43.10;;;;;;4890162;28;46042;-62
2022/06/03 16:55:27;;;;;;;1.33;1.20;;;27.20;43.20;;;;;;4889615;28;45335;-60
2022/06/03 16:58:17;;;;;;;1.27;1.17;;;27.20;43.10;;;;;;4887749;28;46176;-63
2022/06/03 17:00:59;;;;;;;1.63;1.30;;;27.10;43.30;;;;;;4913131;28;45332;-60
2022/06/03 17:03:29;;;;;;;1.42;1.33;;;27.10;43.30;;;;;;4912736;28;45285;-62
2022/06/03 17:06:06;;;;;;;1.70;1.20;;;27.10;43.20;;;;;;4895869;28;45477;-63
2022/06/03 17:08:33;;;;;;;1.10;0.95;;;27.10;43.20;;;;;;4909744;28;45467;-62
2022/06/03 17:11:09;;;;;;;1.60;1.25;;;27.10;43.20;;;;;;4906856;28;45336;-60
2022/06/03 17:13:35;;;;;;;1.70;1.23;;;27.10;43.40;;;;;;4893454;28;46267;-62
2022/06/03 17:16:00;;;;;;;2.85;1.50;;;27.10;43.40;;;;;;4903593;28;45233;-64
2022/06/03 17:18:26;;;;;;;1.05;1.05;;;27.10;43.50;;;;;;4909877;28;46362;-60